Terminal Aerodrome Forecast
Issued by NWS

Home | Current Version | Previous Version | Text Only | Print | Product List | Glossary Off
Versions: 1 2 3 4 5 6 7 8 9 10 11 12 13 14 15 16 17 18 19 20 21 22 23 24 25 26 27

000
FTUS43 KGRB 200554
TAFATW
TAF
KATW 200554Z 2006/2106 11005KT P6SM BKN250 WS006/15025KT
     FM201500 13009G17KT P6SM SCT120 BKN250
     FM202100 14014G25KT 6SM BR BKN050
     FM210200 15012G20KT 5SM -SHRA BR SCT012 BKN025
     FM210500 16010G18KT 2SM -SHRA BR SCT006 BKN012=

USA.gov is the U.S. government's official web portal to all federal, state and local government web resources and services.